sensor_id;sensor_type;location;lat;lon;timestamp;pressure;altitude;pressure_sealevel;temperature;humidity
36284;BME280;56085;48.910;9.478;2023-05-22T00:01:01;97606.41;;;42.08;15.10
36284;BME280;56085;48.910;9.478;2023-05-22T00:03:28;97600.16;;;42.11;15.04
36284;BME280;56085;48.910;9.478;2023-05-22T00:05:54;97594.34;;;41.76;15.33
36284;BME280;56085;48.910;9.478;2023-05-22T00:08:23;97617.69;;;42.03;15.07
36284;BME280;56085;48.910;9.478;2023-05-22T00:10:49;97591.34;;;41.41;15.51
36284;BME280;56085;48.910;9.478;2023-05-22T00:13:14;97592.50;;;41.63;15.56
36284;BME280;56085;48.910;9.478;2023-05-22T00:15:39;97593.19;;;41.72;15.28
36284;BME280;56085;48.910;9.478;2023-05-22T00:18:05;97611.38;;;41.72;15.49
36284;BME280;56085;48.910;9.478;2023-05-22T00:20:30;97589.78;;;41.65;15.43
36284;BME280;56085;48.910;9.478;2023-05-22T00:22:55;97575.53;;;41.60;15.23
36284;BME280;56085;48.910;9.478;2023-05-22T00:25:21;97614.09;;;40.94;15.44
36284;BME280;56085;48.910;9.478;2023-05-22T00:27:47;97613.34;;;41.19;15.29
36284;BME280;56085;48.910;9.478;2023-05-22T00:30:12;97618.19;;;40.83;15.43
36284;BME280;56085;48.910;9.478;2023-05-22T00:32:38;97609.19;;;41.38;15.53
36284;BME280;56085;48.910;9.478;2023-05-22T00:35:04;97621.56;;;41.30;15.42
36284;BME280;56085;48.910;9.478;2023-05-22T00:37:30;97591.13;;;41.64;15.44
36284;BME280;56085;48.910;9.478;2023-05-22T00:39:55;97608.75;;;41.66;15.42
36284;BME280;56085;48.910;9.478;2023-05-22T00:42:21;97621.25;;;41.77;15.51
36284;BME280;56085;48.910;9.478;2023-05-22T00:44:47;97595.50;;;41.73;15.31
36284;BME280;56085;48.910;9.478;2023-05-22T00:47:12;97596.28;;;41.74;15.28
36284;BME280;56085;48.910;9.478;2023-05-22T00:49:38;97583.69;;;42.14;15.48
36284;BME280;56085;48.910;9.478;2023-05-22T00:52:03;97600.09;;;41.59;15.53
36284;BME280;56085;48.910;9.478;2023-05-22T00:54:30;97656.09;;;41.69;15.53
36284;BME280;56085;48.910;9.478;2023-05-22T00:56:56;97608.97;;;41.86;15.24
36284;BME280;56085;48.910;9.478;2023-05-22T00:59:21;97593.44;;;41.91;15.56
36284;BME280;56085;48.910;9.478;2023-05-22T01:01:47;97592.22;;;41.51;15.23
36284;BME280;56085;48.910;9.478;2023-05-22T01:04:12;97599.25;;;41.66;15.28
36284;BME280;56085;48.910;9.478;2023-05-22T01:06:39;97583.28;;;41.82;15.31
36284;BME280;56085;48.910;9.478;2023-05-22T01:09:05;97613.50;;;41.72;15.32
36284;BME280;56085;48.910;9.478;2023-05-22T01:11:37;97778.81;;;42.37;15.16
36284;BME280;56085;48.910;9.478;2023-05-22T01:14:42;97770.47;;;42.59;15.04
36284;BME280;56085;48.910;9.478;2023-05-22T01:17:22;97780.31;;;42.64;15.18
36284;BME280;56085;48.910;9.478;2023-05-22T01:19:57;97590.28;;;42.32;15.44
36284;BME280;56085;48.910;9.478;2023-05-22T01:22:33;97773.66;;;42.71;15.12
36284;BME280;56085;48.910;9.478;2023-05-22T01:28:06;97764.84;;;42.79;15.07
36284;BME280;56085;48.910;9.478;2023-05-22T01:33:15;97763.69;;;42.39;15.19
36284;BME280;56085;48.910;9.478;2023-05-22T01:35:44;97754.53;;;42.25;15.12
36284;BME280;56085;48.910;9.478;2023-05-22T01:38:11;97643.88;;;41.78;14.88
36284;BME280;56085;48.910;9.478;2023-05-22T01:40:37;97625.13;;;41.72;15.05
36284;BME280;56085;48.910;9.478;2023-05-22T01:43:02;97599.41;;;41.50;15.13
36284;BME280;56085;48.910;9.478;2023-05-22T01:45:28;97597.75;;;41.40;14.99
36284;BME280;56085;48.910;9.478;2023-05-22T01:47:55;97622.66;;;41.43;15.15
36284;BME280;56085;48.910;9.478;2023-05-22T01:50:21;97626.38;;;41.35;15.43
36284;BME280;56085;48.910;9.478;2023-05-22T01:52:57;97771.22;;;41.66;15.04
36284;BME280;56085;48.910;9.478;2023-05-22T01:56:05;97773.25;;;42.75;15.02
36284;BME280;56085;48.910;9.478;2023-05-22T02:01:03;97626.22;;;41.84;15.49
36284;BME280;56085;48.910;9.478;2023-05-22T02:03:30;97698.44;;;41.97;14.96
36284;BME280;56085;48.910;9.478;2023-05-22T02:05:59;97722.59;;;42.25;15.14
36284;BME280;56085;48.910;9.478;2023-05-22T02:08:26;97726.16;;;41.65;15.00
36284;BME280;56085;48.910;9.478;2023-05-22T02:10:54;97767.06;;;41.52;15.26
36284;BME280;56085;48.910;9.478;2023-05-22T02:13:21;97663.41;;;41.20;15.33
36284;BME280;56085;48.910;9.478;2023-05-22T02:15:46;97634.50;;;41.62;15.23
36284;BME280;56085;48.910;9.478;2023-05-22T02:18:12;97628.19;;;41.56;15.04
36284;BME280;56085;48.910;9.478;2023-05-22T02:20:38;97621.31;;;41.44;15.13
36284;BME280;56085;48.910;9.478;2023-05-22T02:23:03;97620.94;;;41.65;15.27
36284;BME280;56085;48.910;9.478;2023-05-22T02:25:28;97621.88;;;41.67;15.06
36284;BME280;56085;48.910;9.478;2023-05-22T02:27:53;97615.03;;;41.55;15.45
36284;BME280;56085;48.910;9.478;2023-05-22T02:30:19;97611.75;;;41.26;14.91
36284;BME280;56085;48.910;9.478;2023-05-22T02:32:44;97621.66;;;41.48;15.34
36284;BME280;56085;48.910;9.478;2023-05-22T02:35:09;97617.88;;;41.05;15.15
36284;BME280;56085;48.910;9.478;2023-05-22T02:37:35;97621.41;;;41.28;15.11
36284;BME280;56085;48.910;9.478;2023-05-22T02:40:00;97629.75;;;40.91;15.32
36284;BME280;56085;48.910;9.478;2023-05-22T02:42:25;97632.16;;;40.70;15.36
36284;BME280;56085;48.910;9.478;2023-05-22T02:44:51;97619.00;;;40.76;15.36
36284;BME280;56085;48.910;9.478;2023-05-22T02:47:16;97625.13;;;41.21;15.17
36284;BME280;56085;48.910;9.478;2023-05-22T02:49:41;97633.50;;;41.42;15.22
36284;BME280;56085;48.910;9.478;2023-05-22T02:52:06;97617.75;;;41.96;15.24
36284;BME280;56085;48.910;9.478;2023-05-22T02:54:32;97627.78;;;42.20;15.67
36284;BME280;56085;48.910;9.478;2023-05-22T02:56:57;97603.63;;;42.17;15.00
36284;BME280;56085;48.910;9.478;2023-05-22T02:59:22;97602.16;;;41.66;14.92
36284;BME280;56085;48.910;9.478;2023-05-22T03:01:49;97701.75;;;41.94;14.71
36284;BME280;56085;48.910;9.478;2023-05-22T03:04:14;97616.75;;;41.25;15.14
36284;BME280;56085;48.910;9.478;2023-05-22T03:06:40;97636.38;;;40.28;15.05
36284;BME280;56085;48.910;9.478;2023-05-22T03:09:05;97617.47;;;40.11;15.06
36284;BME280;56085;48.910;9.478;2023-05-22T03:11:33;97622.13;;;40.07;15.06
36284;BME280;56085;48.910;9.478;2023-05-22T03:13:58;97645.25;;;40.22;15.25
36284;BME280;56085;48.910;9.478;2023-05-22T03:16:24;97612.81;;;40.24;15.44
36284;BME280;56085;48.910;9.478;2023-05-22T03:18:49;97629.34;;;40.46;15.30
36284;BME280;56085;48.910;9.478;2023-05-22T03:21:15;97638.44;;;40.91;15.07
36284;BME280;56085;48.910;9.478;2023-05-22T03:23:40;97633.38;;;41.32;15.21
36284;BME280;56085;48.910;9.478;2023-05-22T03:26:05;97619.81;;;41.35;15.30
36284;BME280;56085;48.910;9.478;2023-05-22T03:28:31;97607.50;;;41.77;15.24
36284;BME280;56085;48.910;9.478;2023-05-22T03:30:56;97618.59;;;41.63;14.95
36284;BME280;56085;48.910;9.478;2023-05-22T03:33:21;97626.72;;;41.90;14.98
36284;BME280;56085;48.910;9.478;2023-05-22T03:35:46;97613.75;;;42.09;14.81
36284;BME280;56085;48.910;9.478;2023-05-22T03:38:12;97603.41;;;41.80;15.15
36284;BME280;56085;48.910;9.478;2023-05-22T03:40:37;97614.25;;;41.55;14.96
36284;BME280;56085;48.910;9.478;2023-05-22T03:43:02;97620.56;;;41.10;15.12
36284;BME280;56085;48.910;9.478;2023-05-22T03:45:28;97618.56;;;40.88;15.07
36284;BME280;56085;48.910;9.478;2023-05-22T03:47:53;97634.22;;;40.28;15.35
36284;BME280;56085;48.910;9.478;2023-05-22T03:50:18;97622.25;;;40.32;15.09
36284;BME280;56085;48.910;9.478;2023-05-22T03:52:43;97644.34;;;39.81;15.16
36284;BME280;56085;48.910;9.478;2023-05-22T03:55:09;97643.91;;;40.16;15.29
36284;BME280;56085;48.910;9.478;2023-05-22T03:57:34;97640.44;;;40.09;15.32
36284;BME280;56085;48.910;9.478;2023-05-22T04:00:00;97654.16;;;39.93;15.38
36284;BME280;56085;48.910;9.478;2023-05-22T04:02:36;97655.84;;;40.27;15.45
36284;BME280;56085;48.910;9.478;2023-05-22T04:05:07;97785.78;;;40.23;15.21
36284;BME280;56085;48.910;9.478;2023-05-22T04:07:33;97680.22;;;39.78;15.58
36284;BME280;56085;48.910;9.478;2023-05-22T04:09:59;97659.56;;;39.43;15.50
36284;BME280;56085;48.910;9.478;2023-05-22T04:12:24;97675.16;;;39.94;15.41
36284;BME280;56085;48.910;9.478;2023-05-22T04:14:49;97647.78;;;40.18;15.48
36284;BME280;56085;48.910;9.478;2023-05-22T04:17:14;97646.16;;;40.40;15.45
36284;BME280;56085;48.910;9.478;2023-05-22T04:19:40;97646.91;;;40.56;15.37
36284;BME280;56085;48.910;9.478;2023-05-22T04:22:05;97657.91;;;40.98;15.47
36284;BME280;56085;48.910;9.478;2023-05-22T04:24:30;97650.06;;;41.49;15.60
36284;BME280;56085;48.910;9.478;2023-05-22T04:26:56;97651.38;;;41.56;15.38
36284;BME280;56085;48.910;9.478;2023-05-22T04:29:23;97668.91;;;41.41;15.41
36284;BME280;56085;48.910;9.478;2023-05-22T04:31:49;97657.59;;;41.78;15.36
36284;BME280;56085;48.910;9.478;2023-05-22T04:34:14;97680.22;;;41.79;15.17
36284;BME280;56085;48.910;9.478;2023-05-22T04:36:40;97643.25;;;41.55;15.22
36284;BME280;56085;48.910;9.478;2023-05-22T04:39:05;97673.88;;;41.48;15.60
36284;BME280;56085;48.910;9.478;2023-05-22T04:41:32;97684.94;;;41.42;15.52
36284;BME280;56085;48.910;9.478;2023-05-22T04:43:58;97684.50;;;41.78;15.33
36284;BME280;56085;48.910;9.478;2023-05-22T04:46:24;97675.94;;;41.55;15.33
36284;BME280;56085;48.910;9.478;2023-05-22T04:48:49;97666.78;;;41.66;15.29
36284;BME280;56085;48.910;9.478;2023-05-22T04:51:15;97656.88;;;41.69;15.16
36284;BME280;56085;48.910;9.478;2023-05-22T04:53:40;97670.16;;;41.80;15.20
36284;BME280;56085;48.910;9.478;2023-05-22T04:56:05;97695.59;;;41.90;15.24
36284;BME280;56085;48.910;9.478;2023-05-22T04:58:31;97670.19;;;41.73;15.21
36284;BME280;56085;48.910;9.478;2023-05-22T05:00:56;97681.16;;;41.57;15.08
36284;BME280;56085;48.910;9.478;2023-05-22T05:03:23;97690.00;;;41.33;15.01
36284;BME280;56085;48.910;9.478;2023-05-22T05:05:52;97684.13;;;41.49;15.49
36284;BME280;56085;48.910;9.478;2023-05-22T05:08:17;97695.16;;;41.10;15.26
36284;BME280;56085;48.910;9.478;2023-05-22T05:10:43;97682.50;;;40.90;15.26
36284;BME280;56085;48.910;9.478;2023-05-22T05:13:08;97701.06;;;41.27;15.58
36284;BME280;56085;48.910;9.478;2023-05-22T05:15:33;97697.03;;;41.23;15.17
36284;BME280;56085;48.910;9.478;2023-05-22T05:17:59;97684.94;;;41.42;15.35
36284;BME280;56085;48.910;9.478;2023-05-22T05:20:24;97674.75;;;41.25;15.29
36284;BME280;56085;48.910;9.478;2023-05-22T05:22:51;97686.66;;;41.45;15.68
36284;BME280;56085;48.910;9.478;2023-05-22T05:25:16;97675.47;;;41.66;15.31
36284;BME280;56085;48.910;9.478;2023-05-22T05:27:42;97679.44;;;41.79;15.35
36284;BME280;56085;48.910;9.478;2023-05-22T05:30:07;97662.22;;;41.98;15.25
36284;BME280;56085;48.910;9.478;2023-05-22T05:32:33;97683.44;;;42.09;15.22
36284;BME280;56085;48.910;9.478;2023-05-22T05:34:58;97679.03;;;42.25;15.40
36284;BME280;56085;48.910;9.478;2023-05-22T05:37:23;97652.31;;;42.27;15.30
36284;BME280;56085;48.910;9.478;2023-05-22T05:39:48;97689.88;;;42.42;15.32
36284;BME280;56085;48.910;9.478;2023-05-22T05:42:14;97685.47;;;42.16;15.33
36284;BME280;56085;48.910;9.478;2023-05-22T05:44:39;97695.25;;;42.28;15.29
36284;BME280;56085;48.910;9.478;2023-05-22T05:47:05;97683.16;;;42.40;15.42
36284;BME280;56085;48.910;9.478;2023-05-22T05:49:30;97685.44;;;42.41;15.67
36284;BME280;56085;48.910;9.478;2023-05-22T05:51:56;97691.31;;;42.33;15.24
36284;BME280;56085;48.910;9.478;2023-05-22T05:54:21;97683.53;;;42.18;15.51
36284;BME280;56085;48.910;9.478;2023-05-22T05:56:46;97675.94;;;41.80;15.40
36284;BME280;56085;48.910;9.478;2023-05-22T05:59:12;97694.00;;;41.96;15.64
36284;BME280;56085;48.910;9.478;2023-05-22T06:01:37;97694.75;;;41.72;15.46
36284;BME280;56085;48.910;9.478;2023-05-22T06:04:03;97703.34;;;41.62;15.48
36284;BME280;56085;48.910;9.478;2023-05-22T06:06:30;97720.09;;;42.21;15.56
36284;BME280;56085;48.910;9.478;2023-05-22T06:09:01;97723.19;;;41.73;15.64
36284;BME280;56085;48.910;9.478;2023-05-22T06:11:27;97692.19;;;42.61;15.62
36284;BME280;56085;48.910;9.478;2023-05-22T06:13:52;97695.00;;;42.51;15.50
36284;BME280;56085;48.910;9.478;2023-05-22T06:16:17;97686.03;;;43.19;15.58
36284;BME280;56085;48.910;9.478;2023-05-22T06:18:43;97694.44;;;42.98;15.68
36284;BME280;56085;48.910;9.478;2023-05-22T06:21:10;97698.66;;;43.59;15.39
36284;BME280;56085;48.910;9.478;2023-05-22T06:23:35;97661.03;;;44.37;15.27
36284;BME280;56085;48.910;9.478;2023-05-22T06:26:01;97667.00;;;44.59;15.51
36284;BME280;56085;48.910;9.478;2023-05-22T06:28:26;97664.72;;;44.67;15.48
36284;BME280;56085;48.910;9.478;2023-05-22T06:30:51;97666.56;;;44.53;15.64
36284;BME280;56085;48.910;9.478;2023-05-22T06:33:16;97695.97;;;43.71;15.18
36284;BME280;56085;48.910;9.478;2023-05-22T06:35:42;97666.69;;;44.25;15.35
36284;BME280;56085;48.910;9.478;2023-05-22T06:38:07;97670.97;;;44.15;15.13
36284;BME280;56085;48.910;9.478;2023-05-22T06:40:32;97672.66;;;44.27;15.03
36284;BME280;56085;48.910;9.478;2023-05-22T06:42:58;97663.50;;;44.41;15.26
36284;BME280;56085;48.910;9.478;2023-05-22T06:45:26;97671.88;;;44.07;15.13
36284;BME280;56085;48.910;9.478;2023-05-22T06:47:52;97712.56;;;44.54;15.26
36284;BME280;56085;48.910;9.478;2023-05-22T06:50:18;97649.03;;;44.92;15.28
36284;BME280;56085;48.910;9.478;2023-05-22T06:52:43;97655.72;;;45.24;15.06
36284;BME280;56085;48.910;9.478;2023-05-22T06:55:08;97671.63;;;45.42;15.04
36284;BME280;56085;48.910;9.478;2023-05-22T06:57:34;97668.13;;;45.44;15.13
36284;BME280;56085;48.910;9.478;2023-05-22T07:00:00;97673.63;;;45.50;15.01
36284;BME280;56085;48.910;9.478;2023-05-22T07:02:25;97694.47;;;44.46;14.88
36284;BME280;56085;48.910;9.478;2023-05-22T07:04:50;97679.69;;;44.05;15.10
36284;BME280;56085;48.910;9.478;2023-05-22T07:07:19;97656.53;;;44.07;14.90
36284;BME280;56085;48.910;9.478;2023-05-22T07:09:44;97674.47;;;44.23;14.87
36284;BME280;56085;48.910;9.478;2023-05-22T07:12:10;97700.81;;;43.58;14.86
36284;BME280;56085;48.910;9.478;2023-05-22T07:14:36;97708.16;;;43.59;14.82
36284;BME280;56085;48.910;9.478;2023-05-22T07:17:02;97694.44;;;43.42;14.66
36284;BME280;56085;48.910;9.478;2023-05-22T07:19:27;97701.56;;;43.59;14.84
36284;BME280;56085;48.910;9.478;2023-05-22T07:21:52;97718.13;;;43.56;15.18
36284;BME280;56085;48.910;9.478;2023-05-22T07:24:17;97691.03;;;43.64;15.05
36284;BME280;56085;48.910;9.478;2023-05-22T07:26:43;97751.28;;;43.44;14.92
36284;BME280;56085;48.910;9.478;2023-05-22T07:29:12;97740.88;;;44.15;15.12
36284;BME280;56085;48.910;9.478;2023-05-22T07:31:40;97703.84;;;44.64;15.21
36284;BME280;56085;48.910;9.478;2023-05-22T07:34:06;97694.31;;;45.12;14.85
36284;BME280;56085;48.910;9.478;2023-05-22T07:36:31;97697.84;;;44.91;15.08
36284;BME280;56085;48.910;9.478;2023-05-22T07:38:58;97682.91;;;45.17;14.77
36284;BME280;56085;48.910;9.478;2023-05-22T07:41:24;97702.50;;;45.36;15.04
36284;BME280;56085;48.910;9.478;2023-05-22T07:43:51;97689.53;;;44.58;15.07
36284;BME280;56085;48.910;9.478;2023-05-22T07:46:16;97727.31;;;44.00;15.16
36284;BME280;56085;48.910;9.478;2023-05-22T07:48:41;97716.97;;;45.34;15.13
36284;BME280;56085;48.910;9.478;2023-05-22T07:51:07;97710.47;;;45.55;14.96
36284;BME280;56085;48.910;9.478;2023-05-22T07:53:33;97695.50;;;46.02;15.03
36284;BME280;56085;48.910;9.478;2023-05-22T07:55:58;97688.09;;;46.54;14.81
36284;BME280;56085;48.910;9.478;2023-05-22T07:58:23;97672.16;;;47.00;15.04
36284;BME280;56085;48.910;9.478;2023-05-22T08:00:49;97692.56;;;46.88;14.68
36284;BME280;56085;48.910;9.478;2023-05-22T08:03:14;97693.97;;;46.00;14.85
36284;BME280;56085;48.910;9.478;2023-05-22T08:05:39;97707.72;;;46.63;14.35
36284;BME280;56085;48.910;9.478;2023-05-22T08:08:05;97682.69;;;47.38;14.58
36284;BME280;56085;48.910;9.478;2023-05-22T08:10:30;97698.50;;;47.00;14.78
36284;BME280;56085;48.910;9.478;2023-05-22T08:12:55;97709.53;;;46.25;14.83
36284;BME280;56085;48.910;9.478;2023-05-22T08:15:22;97695.59;;;46.78;14.31
36284;BME280;56085;48.910;9.478;2023-05-22T08:17:48;97673.16;;;47.38;14.32
36284;BME280;56085;48.910;9.478;2023-05-22T08:20:13;97699.16;;;47.22;14.24
36284;BME280;56085;48.910;9.478;2023-05-22T08:22:38;97675.19;;;47.95;14.47
36284;BME280;56085;48.910;9.478;2023-05-22T08:25:05;97655.84;;;47.78;14.21
36284;BME280;56085;48.910;9.478;2023-05-22T08:27:30;97703.19;;;47.50;14.16
36284;BME280;56085;48.910;9.478;2023-05-22T08:29:56;97694.66;;;46.97;14.27
36284;BME280;56085;48.910;9.478;2023-05-22T08:32:21;97688.88;;;47.33;14.22
36284;BME280;56085;48.910;9.478;2023-05-22T08:34:46;97718.06;;;46.11;14.18
36284;BME280;56085;48.910;9.478;2023-05-22T08:37:12;97754.63;;;45.00;14.42
36284;BME280;56085;48.910;9.478;2023-05-22T08:39:39;97729.13;;;46.12;14.18
36284;BME280;56085;48.910;9.478;2023-05-22T08:42:04;97692.44;;;47.31;14.25
36284;BME280;56085;48.910;9.478;2023-05-22T08:44:30;97693.13;;;47.53;14.01
36284;BME280;56085;48.910;9.478;2023-05-22T08:46:56;97734.03;;;48.22;13.98
36284;BME280;56085;48.910;9.478;2023-05-22T08:49:24;97658.78;;;47.42;14.27
36284;BME280;56085;48.910;9.478;2023-05-22T08:51:53;97862.34;;;48.36;14.00
36284;BME280;56085;48.910;9.478;2023-05-22T08:54:20;97706.75;;;48.20;13.83
36284;BME280;56085;48.910;9.478;2023-05-22T08:56:47;97692.94;;;47.28;13.67
36284;BME280;56085;48.910;9.478;2023-05-22T08:59:14;97770.88;;;46.78;14.01
36284;BME280;56085;48.910;9.478;2023-05-22T09:01:39;97697.84;;;47.70;14.03
36284;BME280;56085;48.910;9.478;2023-05-22T09:04:08;97820.13;;;47.82;13.67
36284;BME280;56085;48.910;9.478;2023-05-22T09:06:33;97685.50;;;47.48;13.83
36284;BME280;56085;48.910;9.478;2023-05-22T09:08:59;97698.28;;;48.38;13.44
36284;BME280;56085;48.910;9.478;2023-05-22T09:11:43;97897.34;;;49.05;13.57
36284;BME280;56085;48.910;9.478;2023-05-22T09:14:10;97706.50;;;47.68;13.50
36284;BME280;56085;48.910;9.478;2023-05-22T09:16:49;97888.28;;;48.06;13.44
36284;BME280;56085;48.910;9.478;2023-05-22T09:19:15;97668.56;;;48.18;13.74
36284;BME280;56085;48.910;9.478;2023-05-22T09:21:41;97687.00;;;49.21;13.63
36284;BME280;56085;48.910;9.478;2023-05-22T09:24:07;97662.47;;;49.29;13.44
36284;BME280;56085;48.910;9.478;2023-05-22T09:26:34;97667.22;;;49.61;13.28
36284;BME280;56085;48.910;9.478;2023-05-22T09:28:59;97684.97;;;49.77;13.25
36284;BME280;56085;48.910;9.478;2023-05-22T09:31:25;97671.69;;;49.63;13.33
36284;BME280;56085;48.910;9.478;2023-05-22T09:33:52;97720.41;;;49.02;12.68
36284;BME280;56085;48.910;9.478;2023-05-22T09:36:18;97677.69;;;49.78;12.92
36284;BME280;56085;48.910;9.478;2023-05-22T09:38:43;97708.44;;;49.64;13.18
36284;BME280;56085;48.910;9.478;2023-05-22T09:41:09;97668.94;;;49.53;12.68
36284;BME280;56085;48.910;9.478;2023-05-22T09:43:34;97685.56;;;49.08;12.80
36284;BME280;56085;48.910;9.478;2023-05-22T09:46:00;97719.25;;;48.20;13.02
36284;BME280;56085;48.910;9.478;2023-05-22T09:48:28;97671.41;;;48.53;12.93
36284;BME280;56085;48.910;9.478;2023-05-22T09:50:54;97722.22;;;49.21;13.11
36284;BME280;56085;48.910;9.478;2023-05-22T09:53:24;97849.97;;;48.14;12.73
36284;BME280;56085;48.910;9.478;2023-05-22T09:55:50;97696.19;;;48.03;12.96
36284;BME280;56085;48.910;9.478;2023-05-22T09:58:18;97736.56;;;48.78;13.17
36284;BME280;56085;48.910;9.478;2023-05-22T10:00:44;97715.03;;;48.73;12.97
36284;BME280;56085;48.910;9.478;2023-05-22T10:03:10;97662.84;;;49.09;12.58
36284;BME280;56085;48.910;9.478;2023-05-22T10:05:43;97828.44;;;50.23;12.56
36284;BME280;56085;48.910;9.478;2023-05-22T10:08:13;97823.31;;;50.93;12.35
36284;BME280;56085;48.910;9.478;2023-05-22T10:10:41;97833.56;;;50.92;12.66
36284;BME280;56085;48.910;9.478;2023-05-22T10:13:07;97706.81;;;51.02;12.70
36284;BME280;56085;48.910;9.478;2023-05-22T10:15:33;97708.84;;;49.98;12.42
36284;BME280;56085;48.910;9.478;2023-05-22T10:17:59;97681.19;;;49.49;12.63
36284;BME280;56085;48.910;9.478;2023-05-22T10:20:25;97699.34;;;50.13;12.34
36284;BME280;56085;48.910;9.478;2023-05-22T10:22:52;97748.41;;;51.26;12.28
36284;BME280;56085;48.910;9.478;2023-05-22T10:25:17;97660.91;;;51.58;11.81
36284;BME280;56085;48.910;9.478;2023-05-22T10:27:43;97645.41;;;50.80;11.80
36284;BME280;56085;48.910;9.478;2023-05-22T10:30:27;97869.28;;;52.04;11.48
36284;BME280;56085;48.910;9.478;2023-05-22T10:32:59;97853.28;;;52.73;11.32
36284;BME280;56085;48.910;9.478;2023-05-22T10:35:56;97849.41;;;53.20;10.99
36284;BME280;56085;48.910;9.478;2023-05-22T10:41:24;97852.19;;;52.82;11.07
36284;BME280;56085;48.910;9.478;2023-05-22T10:43:50;97655.19;;;51.46;11.16
36284;BME280;56085;48.910;9.478;2023-05-22T10:46:17;97710.31;;;52.76;11.22
36284;BME280;56085;48.910;9.478;2023-05-22T10:48:47;97863.25;;;52.65;10.90
36284;BME280;56085;48.910;9.478;2023-05-22T10:51:14;97701.69;;;53.00;10.88
36284;BME280;56085;48.910;9.478;2023-05-22T10:53:42;97672.53;;;52.72;10.57
36284;BME280;56085;48.910;9.478;2023-05-22T10:56:14;97860.66;;;53.42;10.30
36284;BME280;56085;48.910;9.478;2023-05-22T10:58:44;97820.78;;;53.79;10.67
36284;BME280;56085;48.910;9.478;2023-05-22T11:01:19;97632.91;;;52.59;10.67
36284;BME280;56085;48.910;9.478;2023-05-22T11:04:04;97823.91;;;52.43;10.45
36284;BME280;56085;48.910;9.478;2023-05-22T11:06:44;97627.31;;;53.03;10.17
36284;BME280;56085;48.910;9.478;2023-05-22T11:11:45;97694.63;;;53.07;10.02
36284;BME280;56085;48.910;9.478;2023-05-22T11:14:11;97615.69;;;53.08;10.19
36284;BME280;56085;48.910;9.478;2023-05-22T11:16:39;97614.06;;;53.43;10.16
36284;BME280;56085;48.910;9.478;2023-05-22T11:19:06;97703.84;;;51.63;9.88
36284;BME280;56085;48.910;9.478;2023-05-22T11:21:42;97845.28;;;53.63;9.41
36284;BME280;56085;48.910;9.478;2023-05-22T11:24:09;97579.44;;;52.87;9.99
36284;BME280;56085;48.910;9.478;2023-05-22T11:26:34;97632.88;;;53.33;10.08
36284;BME280;56085;48.910;9.478;2023-05-22T11:29:00;97619.44;;;54.08;9.60
36284;BME280;56085;48.910;9.478;2023-05-22T11:31:25;97607.31;;;54.89;9.76
36284;BME280;56085;48.910;9.478;2023-05-22T11:33:52;97624.13;;;53.96;9.28
36284;BME280;56085;48.910;9.478;2023-05-22T11:36:18;97622.34;;;54.06;9.60
36284;BME280;56085;48.910;9.478;2023-05-22T11:38:43;97585.78;;;55.10;8.95
36284;BME280;56085;48.910;9.478;2023-05-22T11:41:09;97623.22;;;54.78;9.00
36284;BME280;56085;48.910;9.478;2023-05-22T11:43:36;97585.66;;;55.06;9.23
36284;BME280;56085;48.910;9.478;2023-05-22T11:46:05;97816.28;;;55.89;8.76
36284;BME280;56085;48.910;9.478;2023-05-22T11:48:32;97596.13;;;55.86;8.58
36284;BME280;56085;48.910;9.478;2023-05-22T11:50:57;97518.69;;;55.72;9.17
36284;BME280;56085;48.910;9.478;2023-05-22T11:53:23;97609.00;;;53.85;8.90
36284;BME280;56085;48.910;9.478;2023-05-22T11:55:48;97592.09;;;53.88;8.64
36284;BME280;56085;48.910;9.478;2023-05-22T11:58:13;97601.00;;;53.10;9.54
36284;BME280;56085;48.910;9.478;2023-05-22T12:00:39;97567.19;;;53.73;8.71
36284;BME280;56085;48.910;9.478;2023-05-22T12:03:04;97570.09;;;54.82;8.83
36284;BME280;56085;48.910;9.478;2023-05-22T12:05:30;97586.22;;;54.54;9.04
36284;BME280;56085;48.910;9.478;2023-05-22T12:07:56;97608.13;;;53.22;9.00
36284;BME280;56085;48.910;9.478;2023-05-22T12:10:21;97602.59;;;53.13;8.82
36284;BME280;56085;48.910;9.478;2023-05-22T12:12:46;97567.97;;;53.96;9.31
36284;BME280;56085;48.910;9.478;2023-05-22T12:15:12;97573.72;;;53.91;8.90
36284;BME280;56085;48.910;9.478;2023-05-22T12:17:38;97636.91;;;54.89;8.94
36284;BME280;56085;48.910;9.478;2023-05-22T12:20:04;97604.50;;;55.68;8.88
36284;BME280;56085;48.910;9.478;2023-05-22T12:22:30;97576.72;;;54.58;8.99
36284;BME280;56085;48.910;9.478;2023-05-22T12:24:55;97594.28;;;54.52;8.62
36284;BME280;56085;48.910;9.478;2023-05-22T12:27:20;97581.66;;;55.22;8.21
36284;BME280;56085;48.910;9.478;2023-05-22T12:29:46;97541.06;;;56.36;8.19
36284;BME280;56085;48.910;9.478;2023-05-22T12:32:11;97556.66;;;55.79;8.64
36284;BME280;56085;48.910;9.478;2023-05-22T12:34:44;97792.09;;;56.75;8.07
36284;BME280;56085;48.910;9.478;2023-05-22T12:37:20;97718.09;;;55.28;8.68
36284;BME280;56085;48.910;9.478;2023-05-22T12:40:00;97740.91;;;56.22;8.09
36284;BME280;56085;48.910;9.478;2023-05-22T12:42:26;97603.78;;;56.24;7.95
36284;BME280;56085;48.910;9.478;2023-05-22T12:44:52;97589.69;;;55.68;8.58
36284;BME280;56085;48.910;9.478;2023-05-22T12:47:18;97561.78;;;54.76;8.42
36284;BME280;56085;48.910;9.478;2023-05-22T12:49:43;97587.47;;;55.42;8.39
36284;BME280;56085;48.910;9.478;2023-05-22T12:52:08;97536.34;;;57.22;8.09
36284;BME280;56085;48.910;9.478;2023-05-22T12:54:33;97555.22;;;57.75;7.87
36284;BME280;56085;48.910;9.478;2023-05-22T12:56:59;97553.78;;;56.40;7.94
36284;BME280;56085;48.910;9.478;2023-05-22T12:59:24;97603.69;;;55.15;8.12
36284;BME280;56085;48.910;9.478;2023-05-22T13:01:50;97555.56;;;57.19;7.98
36284;BME280;56085;48.910;9.478;2023-05-22T13:04:15;97550.69;;;55.77;7.65
36284;BME280;56085;48.910;9.478;2023-05-22T13:06:41;97582.34;;;55.44;7.91
36284;BME280;56085;48.910;9.478;2023-05-22T13:09:06;97554.63;;;55.07;7.99
36284;BME280;56085;48.910;9.478;2023-05-22T13:11:32;97572.38;;;56.43;8.14
36284;BME280;56085;48.910;9.478;2023-05-22T13:13:57;97553.13;;;56.44;7.57